createdAt,value
2018-11-13T00:00:03.363Z,13.46
2018-11-13T00:01:02.851Z,13.57
2018-11-13T00:02:03.362Z,13.42
2018-11-13T00:03:03.101Z,13.54
2018-11-13T00:04:03.332Z,13.56
2018-11-13T00:05:03.355Z,13.52
2018-11-13T00:06:03.081Z,13.52
2018-11-13T00:07:03.109Z,13.53
2018-11-13T00:08:03.337Z,13.5
2018-11-13T00:09:03.070Z,13.47
2018-11-13T00:10:03.089Z,13.5
2018-11-13T00:11:03.070Z,13.56
2018-11-13T00:12:03.324Z,13.47
2018-11-13T00:13:03.323Z,13.47
2018-11-13T00:14:03.052Z,13.52
2018-11-13T00:15:03.097Z,13.56
2018-11-13T00:16:03.066Z,13.57
2018-11-13T00:17:03.052Z,13.53
2018-11-13T00:18:03.065Z,13.59
2018-11-13T00:19:03.298Z,13.57
2018-11-13T00:20:03.304Z,13.56
2018-11-13T00:21:03.040Z,13.6
2018-11-13T00:22:03.289Z,13.59
2018-11-13T00:23:03.312Z,13.65
2018-11-13T00:24:03.630Z,13.62
2018-11-13T00:25:03.032Z,13.56
2018-11-13T00:26:03.050Z,13.65
2018-11-13T00:27:03.032Z,13.56
2018-11-13T00:28:03.292Z,13.62
2018-11-13T00:29:03.014Z,13.62
2018-11-13T00:30:03.297Z,13.62
2018-11-13T00:31:03.065Z,13.56
2018-11-13T00:32:03.021Z,13.59
2018-11-13T00:33:03.012Z,13.57
2018-11-13T00:34:03.274Z,13.56
2018-11-13T00:35:02.793Z,13.54
2018-11-13T00:36:03.007Z,13.54
2018-11-13T00:37:03.006Z,13.56
2018-11-13T00:38:03.250Z,13.72
2018-11-13T00:39:03.064Z,13.67
2018-11-13T00:40:02.999Z,13.59
2018-11-13T00:41:03.011Z,13.68
2018-11-13T00:42:03.247Z,13.67
2018-11-13T00:43:02.993Z,13.68
2018-11-13T00:44:02.989Z,13.63
2018-11-13T00:45:03.237Z,13.7
2018-11-13T00:46:03.612Z,13.74
2018-11-13T00:47:03.039Z,13.72
2018-11-13T00:48:02.972Z,13.77
2018-11-13T00:49:03.770Z,13.79
2018-11-13T00:50:02.964Z,13.89
2018-11-13T00:51:03.411Z,13.85
2018-11-13T00:52:02.705Z,13.87
2018-11-13T00:53:02.955Z,13.83
2018-11-13T00:54:02.698Z,13.83
2018-11-13T00:55:04.091Z,13.87
2018-11-13T00:56:03.216Z,13.83
2018-11-13T00:57:02.938Z,13.93
2018-11-13T00:58:02.939Z,13.92
2018-11-13T00:59:02.671Z,13.93
2018-11-13T01:00:03.211Z,13.9
2018-11-13T01:01:03.190Z,13.92
2018-11-13T01:02:03.083Z,13.97
2018-11-13T01:03:03.412Z,13.99
2018-11-13T01:04:02.656Z,13.9
2018-11-13T01:05:03.024Z,13.96
2018-11-13T01:06:03.194Z,13.92
2018-11-13T01:07:02.650Z,13.85
2018-11-13T01:08:02.899Z,13.89
2018-11-13T01:09:02.663Z,13.92
2018-11-13T01:10:02.938Z,13.9
2018-11-13T01:11:03.167Z,13.83
2018-11-13T01:12:03.451Z,13.83
2018-11-13T01:13:03.170Z,13.89
2018-11-13T01:14:02.902Z,13.93
2018-11-13T01:15:03.062Z,13.79
2018-11-13T01:16:03.153Z,13.96
2018-11-13T01:17:02.878Z,13.92
2018-11-13T01:18:03.169Z,13.81
2018-11-13T01:19:02.903Z,13.87
2018-11-13T01:20:02.902Z,13.92
2018-11-13T01:21:02.892Z,13.92
2018-11-13T01:22:02.883Z,13.9
2018-11-13T01:23:03.147Z,13.96
2018-11-13T01:24:03.924Z,13.96
2018-11-13T01:25:03.142Z,13.96
2018-11-13T01:26:02.872Z,13.97
2018-11-13T01:27:03.126Z,13.99
2018-11-13T01:28:03.125Z,14.03
2018-11-13T01:29:03.115Z,14
2018-11-13T01:30:02.855Z,13.97
2018-11-13T01:31:03.152Z,14
2018-11-13T01:32:03.116Z,13.92
2018-11-13T01:33:03.124Z,13.93
2018-11-13T01:34:02.826Z,13.92
2018-11-13T01:35:03.089Z,13.9
2018-11-13T01:36:02.830Z,13.92
2018-11-13T01:37:02.815Z,13.83
2018-11-13T01:38:02.814Z,13.87
2018-11-13T01:39:03.096Z,13.79
2018-11-13T01:40:02.578Z,13.85
2018-11-13T01:41:03.129Z,13.79
2018-11-13T01:42:02.799Z,13.72
2018-11-13T01:43:02.799Z,13.75
2018-11-13T01:44:03.047Z,13.72
2018-11-13T01:45:03.047Z,13.72
2018-11-13T01:46:02.817Z,13.7
2018-11-13T01:47:03.041Z,13.71
2018-11-13T01:48:03.137Z,13.72
2018-11-13T01:49:03.044Z,13.67
2018-11-13T01:50:02.806Z,13.71
2018-11-13T01:51:03.038Z,13.68
2018-11-13T01:52:02.797Z,13.77
2018-11-13T01:53:02.766Z,13.86
2018-11-13T01:54:03.190Z,13.77
2018-11-13T01:55:02.776Z,13.87
2018-11-13T01:56:02.754Z,13.89
2018-11-13T01:57:02.826Z,13.77
2018-11-13T01:58:02.501Z,13.78
2018-11-13T01:59:02.775Z,13.95
2018-11-13T02:00:02.519Z,13.95
2018-11-13T02:01:02.763Z,13.93
2018-11-13T02:02:02.739Z,13.95
2018-11-13T02:03:02.742Z,13.93
2018-11-13T02:04:03.021Z,13.95
2018-11-13T02:05:03.004Z,13.92
2018-11-13T02:06:02.485Z,13.96
2018-11-13T02:07:03.003Z,13.95
2018-11-13T02:08:03.000Z,13.92
2018-11-13T02:09:02.467Z,13.87
2018-11-13T02:10:03.009Z,13.95
2018-11-13T02:11:02.717Z,13.9
2018-11-13T02:12:03.011Z,13.81
2018-11-13T02:13:02.469Z,13.96
2018-11-13T02:14:02.960Z,13.81
2018-11-13T02:15:02.965Z,13.79
2018-11-13T02:16:02.974Z,13.83
2018-11-13T02:17:02.690Z,13.86
2018-11-13T02:18:02.690Z,13.81
2018-11-13T02:19:02.939Z,13.85
2018-11-13T02:20:02.961Z,13.85
2018-11-13T02:21:02.942Z,13.85
2018-11-13T02:22:02.937Z,13.86
2018-11-13T02:23:02.434Z,13.89
2018-11-13T02:24:02.934Z,13.9
2018-11-13T02:25:02.708Z,13.87
2018-11-13T02:26:02.678Z,13.78
2018-11-13T02:27:02.948Z,13.83
2018-11-13T02:28:02.665Z,13.71
2018-11-13T02:29:03.201Z,13.67
2018-11-13T02:30:02.956Z,13.56
2018-11-13T02:31:02.947Z,13.54
2018-11-13T02:32:02.912Z,13.54
2018-11-13T02:33:02.914Z,13.57
2018-11-13T02:34:02.906Z,13.6
2018-11-13T02:35:02.684Z,13.56
2018-11-13T02:36:02.917Z,13.65
2018-11-13T02:37:02.655Z,13.54
2018-11-13T02:38:02.672Z,13.6
2018-11-13T02:39:02.908Z,13.67
2018-11-13T02:40:02.920Z,13.62
2018-11-13T02:41:02.673Z,13.6
2018-11-13T02:42:02.880Z,13.57
2018-11-13T02:43:02.642Z,13.56
2018-11-13T02:44:02.368Z,13.62
2018-11-13T02:45:02.643Z,13.53
2018-11-13T02:46:02.640Z,13.7
2018-11-13T02:47:02.368Z,13.56
2018-11-13T02:48:02.884Z,13.67
2018-11-13T02:49:04.472Z,13.68
2018-11-13T02:50:02.873Z,13.7
2018-11-13T02:51:02.872Z,13.65
2018-11-13T02:52:02.860Z,13.63
2018-11-13T02:53:02.605Z,13.72
2018-11-13T02:54:02.859Z,13.83
2018-11-13T02:55:02.597Z,13.81
2018-11-13T02:56:02.597Z,13.89
2018-11-13T02:57:02.856Z,13.9
2018-11-13T02:58:02.366Z,13.92
2018-11-13T02:59:02.586Z,13.95
2018-11-13T03:00:02.871Z,13.97
2018-11-13T03:01:02.590Z,14.08
2018-11-13T03:02:02.323Z,14
2018-11-13T03:03:02.580Z,13.97
2018-11-13T03:04:02.831Z,14.04
2018-11-13T03:05:02.835Z,14.03
2018-11-13T03:06:02.571Z,13.92
2018-11-13T03:07:02.560Z,13.96
2018-11-13T03:08:02.832Z,14.04
2018-11-13T03:09:02.836Z,13.97
2018-11-13T03:10:02.821Z,13.92
2018-11-13T03:11:02.589Z,13.95
2018-11-13T03:12:02.550Z,13.9
2018-11-13T03:13:02.818Z,13.9
2018-11-13T03:14:02.945Z,13.95
2018-11-13T03:15:02.826Z,13.89
2018-11-13T03:16:02.815Z,13.93
2018-11-13T03:17:02.803Z,13.92
2018-11-13T03:18:02.804Z,13.97
2018-11-13T03:19:02.537Z,13.93
2018-11-13T03:20:02.538Z,13.79
2018-11-13T03:21:02.548Z,13.79
2018-11-13T03:22:02.797Z,13.9
2018-11-13T03:23:02.785Z,13.95
2018-11-13T03:24:02.528Z,13.85
2018-11-13T03:25:02.787Z,13.9
2018-11-13T03:26:02.783Z,13.89
2018-11-13T03:27:02.500Z,13.86
2018-11-13T03:28:02.794Z,13.83
2018-11-13T03:29:02.824Z,13.92
2018-11-13T03:30:02.764Z,13.87
2018-11-13T03:31:02.730Z,13.81
2018-11-13T03:32:02.792Z,13.78
2018-11-13T03:33:02.811Z,13.75
2018-11-13T03:34:02.770Z,13.78
2018-11-13T03:35:02.532Z,13.83
2018-11-13T03:36:02.504Z,13.81
2018-11-13T03:37:02.480Z,13.86
2018-11-13T03:38:02.480Z,13.72
2018-11-13T03:39:02.495Z,13.79
2018-11-13T03:40:02.748Z,13.83
2018-11-13T03:41:02.743Z,13.79
2018-11-13T03:42:02.730Z,13.81
2018-11-13T03:43:02.758Z,13.85
2018-11-13T03:44:02.743Z,13.68
2018-11-13T03:45:02.752Z,13.67
2018-11-13T03:46:02.748Z,13.68
2018-11-13T03:47:02.720Z,13.72
2018-11-13T03:48:02.470Z,13.67
2018-11-13T03:49:02.713Z,13.65
2018-11-13T03:50:02.484Z,13.68
2018-11-13T03:51:02.737Z,13.7
2018-11-13T03:52:02.470Z,13.71
2018-11-13T03:53:02.709Z,13.65
2018-11-13T03:54:02.699Z,13.72
2018-11-13T03:55:02.198Z,13.59
2018-11-13T03:56:02.446Z,13.62
2018-11-13T03:57:02.701Z,13.71
2018-11-13T03:58:02.730Z,13.7
2018-11-13T03:59:02.437Z,13.56
2018-11-13T04:00:02.462Z,13.57
2018-11-13T04:01:02.192Z,13.56
2018-11-13T04:02:02.690Z,13.54
2018-11-13T04:03:02.170Z,13.46
2018-11-13T04:04:02.428Z,13.5
2018-11-13T04:05:02.184Z,13.54
2018-11-13T04:06:02.437Z,13.47
2018-11-13T04:07:02.686Z,13.47
2018-11-13T04:08:02.426Z,13.46
2018-11-13T04:09:02.427Z,13.47
2018-11-13T04:10:02.418Z,13.54
2018-11-13T04:11:02.695Z,13.5
2018-11-13T04:12:02.676Z,13.42
2018-11-13T04:13:02.404Z,13.49
2018-11-13T04:14:02.408Z,13.46
2018-11-13T04:15:02.694Z,13.44
2018-11-13T04:16:02.151Z,13.38
2018-11-13T04:17:02.655Z,13.41
2018-11-13T04:18:02.643Z,13.44
2018-11-13T04:19:02.891Z,13.39
2018-11-13T04:20:02.652Z,13.47
2018-11-13T04:21:02.672Z,13.39
2018-11-13T04:22:02.651Z,13.42
2018-11-13T04:23:02.375Z,13.39
2018-11-13T04:24:02.376Z,13.31
2018-11-13T04:25:02.382Z,13.28
2018-11-13T04:26:02.368Z,13.25
2018-11-13T04:27:02.116Z,13.27
2018-11-13T04:28:02.363Z,13.27
2018-11-13T04:29:02.118Z,13.28
2018-11-13T04:30:02.368Z,13.27
2018-11-13T04:31:02.365Z,13.27
2018-11-13T04:32:02.632Z,13.33
2018-11-13T04:33:02.627Z,13.28
2018-11-13T04:34:02.361Z,13.35
2018-11-13T04:35:02.092Z,13.33
2018-11-13T04:36:02.347Z,13.33
2018-11-13T04:37:02.372Z,13.35
2018-11-13T04:38:02.348Z,13.27
2018-11-13T04:39:02.599Z,13.33
2018-11-13T04:40:02.613Z,13.39
2018-11-13T04:41:02.336Z,13.37
2018-11-13T04:42:02.608Z,13.38
2018-11-13T04:43:02.609Z,13.42
2018-11-13T04:44:02.328Z,13.41
2018-11-13T04:45:02.080Z,13.35
2018-11-13T04:46:02.329Z,13.42
2018-11-13T04:47:02.586Z,13.44
2018-11-13T04:48:02.571Z,13.38
2018-11-13T04:49:03.966Z,13.46
2018-11-13T04:50:02.563Z,13.39
2018-11-13T04:51:02.317Z,13.41
2018-11-13T04:52:02.305Z,13.44
2018-11-13T04:53:02.305Z,13.49
2018-11-13T04:54:02.560Z,13.47
2018-11-13T04:55:02.342Z,13.52
2018-11-13T04:56:02.564Z,13.42
2018-11-13T04:57:02.566Z,13.44
2018-11-13T04:58:02.297Z,13.49
2018-11-13T04:59:02.283Z,13.49
2018-11-13T05:00:02.563Z,13.47
2018-11-13T05:01:02.557Z,13.37
2018-11-13T05:02:02.279Z,13.39
2018-11-13T05:03:02.412Z,13.42
2018-11-13T05:04:02.523Z,13.31
2018-11-13T05:05:02.333Z,13.3
2018-11-13T05:06:02.280Z,13.3
2018-11-13T05:07:02.525Z,13.31
2018-11-13T05:08:02.565Z,13.3
2018-11-13T05:09:02.526Z,13.3
2018-11-13T05:10:02.671Z,13.25
2018-11-13T05:11:02.279Z,13.18
2018-11-13T05:12:02.259Z,13.2
2018-11-13T05:13:02.005Z,13.2
2018-11-13T05:14:02.265Z,13.25
2018-11-13T05:15:02.268Z,13.11
2018-11-13T05:16:02.501Z,13.22
2018-11-13T05:17:01.997Z,13.18
2018-11-13T05:18:02.248Z,13.22
2018-11-13T05:19:02.244Z,13.19
2018-11-13T05:20:02.242Z,13.15
2018-11-13T05:21:02.241Z,13.09
2018-11-13T05:22:01.971Z,13.15
2018-11-13T05:23:02.625Z,13.19
2018-11-13T05:24:02.224Z,13.19
2018-11-13T05:25:02.475Z,13.15
2018-11-13T05:26:02.236Z,13.05
2018-11-13T05:27:01.956Z,13.09
2018-11-13T05:28:02.468Z,13.15
2018-11-13T05:29:02.473Z,13.16
2018-11-13T05:30:02.490Z,13.12
2018-11-13T05:31:01.961Z,13.13
2018-11-13T05:32:01.957Z,13.09
2018-11-13T05:33:02.449Z,13.13
2018-11-13T05:34:02.225Z,13.08
2018-11-13T05:35:02.452Z,13.04
2018-11-13T05:36:02.467Z,13.11
2018-11-13T05:37:02.478Z,13.13
2018-11-13T05:38:02.450Z,13.08
2018-11-13T05:39:02.188Z,13.16
2018-11-13T05:40:02.196Z,13.22
2018-11-13T05:41:02.170Z,13.2
2018-11-13T05:42:02.426Z,13.22
2018-11-13T05:43:02.421Z,13.23
2018-11-13T05:44:02.447Z,13.19
2018-11-13T05:45:02.430Z,13.2
2018-11-13T05:46:02.429Z,13.2
2018-11-13T05:47:02.549Z,13.18
2018-11-13T05:48:02.410Z,13.19
2018-11-13T05:49:02.448Z,13.23
2018-11-13T05:50:02.173Z,13.28
2018-11-13T05:51:02.179Z,13.25
2018-11-13T05:52:02.153Z,13.35
2018-11-13T05:53:02.409Z,13.31
2018-11-13T05:54:02.487Z,13.27
2018-11-13T05:55:02.420Z,13.35
2018-11-13T05:56:02.412Z,13.31
2018-11-13T05:57:02.152Z,13.31
2018-11-13T05:58:02.406Z,13.35
2018-11-13T05:59:02.146Z,13.31
2018-11-13T06:00:02.292Z,13.33
2018-11-13T06:01:02.404Z,13.31
2018-11-13T06:02:02.123Z,13.27
2018-11-13T06:03:02.119Z,13.33
2018-11-13T06:04:02.357Z,13.27
2018-11-13T06:05:02.359Z,13.27
2018-11-13T06:06:02.103Z,13.28
2018-11-13T06:07:02.106Z,13.35
2018-11-13T06:08:01.852Z,13.35
2018-11-13T06:09:02.117Z,13.35
2018-11-13T06:10:02.369Z,13.35
2018-11-13T06:11:02.344Z,13.28
2018-11-13T06:12:02.122Z,13.3
2018-11-13T06:13:02.355Z,13.31
2018-11-13T06:14:02.212Z,13.31
2018-11-13T06:15:02.091Z,13.31
2018-11-13T06:16:02.335Z,13.38
2018-11-13T06:17:02.076Z,13.38
2018-11-13T06:18:02.407Z,13.37
2018-11-13T06:19:02.339Z,13.35
2018-11-13T06:20:02.073Z,13.3
2018-11-13T06:21:02.067Z,13.25
2018-11-13T06:22:02.113Z,13.23
2018-11-13T06:23:02.532Z,13.27
2018-11-13T06:24:02.313Z,13.16
2018-11-13T06:25:02.098Z,13.27
2018-11-13T06:26:02.073Z,13.19
2018-11-13T06:27:02.042Z,13.19
2018-11-13T06:28:02.043Z,13.23
2018-11-13T06:29:02.325Z,13.23
2018-11-13T06:30:02.836Z,13.15
2018-11-13T06:31:02.054Z,13.19
2018-11-13T06:32:02.287Z,13.05
2018-11-13T06:33:01.843Z,13.13
2018-11-13T06:34:01.764Z,13.03
2018-11-13T06:35:02.014Z,13
2018-11-13T06:36:02.274Z,13
2018-11-13T06:37:02.011Z,12.93
2018-11-13T06:38:01.750Z,12.97
2018-11-13T06:39:02.091Z,13.03
2018-11-13T06:40:02.261Z,12.98
2018-11-13T06:41:01.747Z,12.97
2018-11-13T06:42:01.989Z,12.93
2018-11-13T06:43:02.248Z,12.94
2018-11-13T06:44:02.239Z,12.94
2018-11-13T06:45:02.251Z,12.95
2018-11-13T06:46:01.734Z,12.87
2018-11-13T06:47:01.967Z,12.79
2018-11-13T06:48:01.966Z,12.91
2018-11-13T06:49:02.551Z,12.93
2018-11-13T06:50:05.379Z,12.79
2018-11-13T06:51:01.948Z,12.93
2018-11-13T06:52:02.215Z,12.85
2018-11-13T06:53:02.201Z,12.9
2018-11-13T06:54:01.943Z,12.83
2018-11-13T06:55:01.708Z,12.83
2018-11-13T06:56:01.948Z,12.78
2018-11-13T06:57:02.195Z,12.83
2018-11-13T06:58:01.942Z,12.83
2018-11-13T06:59:01.944Z,12.93
2018-11-13T07:00:02.198Z,12.85
2018-11-13T07:01:02.209Z,12.86
2018-11-13T07:02:02.196Z,12.86
2018-11-13T07:03:01.940Z,12.95
2018-11-13T07:04:01.952Z,12.94
2018-11-13T07:05:02.049Z,12.95
2018-11-13T07:06:01.661Z,12.97
2018-11-13T07:07:01.944Z,12.97
2018-11-13T07:08:01.661Z,13.08
2018-11-13T07:09:02.165Z,13.05
2018-11-13T07:10:02.191Z,13
2018-11-13T07:11:02.401Z,13
2018-11-13T07:12:01.901Z,12.97
2018-11-13T07:13:01.681Z,12.98
2018-11-13T07:14:01.899Z,13.08
2018-11-13T07:15:01.894Z,12.98
2018-11-13T07:16:01.899Z,13.01
2018-11-13T07:17:01.898Z,13.05
2018-11-13T07:18:01.903Z,13.04
2018-11-13T07:19:01.677Z,13.03
2018-11-13T07:20:02.132Z,13.13
2018-11-13T07:21:02.837Z,13.12
2018-11-13T07:22:01.631Z,13.08
2018-11-13T07:23:01.870Z,13.16
2018-11-13T07:24:02.132Z,13.2
2018-11-13T07:25:01.872Z,13.15
2018-11-13T07:26:02.140Z,13.16
2018-11-13T07:27:02.282Z,13.09
2018-11-13T07:28:01.625Z,13.16
2018-11-13T07:29:01.847Z,12.98
2018-11-13T07:30:01.853Z,13.03
2018-11-13T07:31:02.107Z,13.03
2018-11-13T07:32:01.597Z,13.03
2018-11-13T07:33:01.853Z,13
2018-11-13T07:34:02.093Z,12.98
2018-11-13T07:35:01.833Z,12.97
2018-11-13T07:36:02.107Z,12.97
2018-11-13T07:37:02.097Z,12.93
2018-11-13T07:38:02.083Z,12.85
2018-11-13T07:39:01.568Z,12.85
2018-11-13T07:40:02.071Z,12.79
2018-11-13T07:41:02.287Z,12.78
2018-11-13T07:42:01.807Z,12.82
2018-11-13T07:43:01.806Z,12.78
2018-11-13T07:44:01.807Z,12.8
2018-11-13T07:45:01.801Z,12.82
2018-11-13T07:46:01.793Z,12.82
2018-11-13T07:47:02.306Z,12.93
2018-11-13T07:48:02.436Z,12.87
2018-11-13T07:49:02.056Z,12.86
2018-11-13T07:50:02.048Z,12.9
2018-11-13T07:51:01.928Z,12.82
2018-11-13T07:52:02.043Z,12.93
2018-11-13T07:53:01.769Z,13.03
2018-11-13T07:54:02.045Z,12.93
2018-11-13T07:55:01.516Z,13
2018-11-13T07:56:02.017Z,12.94
2018-11-13T07:57:01.520Z,13.01
2018-11-13T07:58:01.761Z,13
2018-11-13T07:59:01.757Z,13
2018-11-13T08:00:01.500Z,13
2018-11-13T08:01:02.036Z,13.01
2018-11-13T08:02:01.486Z,13
2018-11-13T08:03:02.000Z,13.04
2018-11-13T08:04:02.001Z,13.01
2018-11-13T08:05:01.483Z,13.05
2018-11-13T08:06:02.018Z,13.16
2018-11-13T08:07:01.742Z,13
2018-11-13T08:08:01.487Z,13.04
2018-11-13T08:09:02.010Z,13.12
2018-11-13T08:10:01.969Z,13.04
2018-11-13T08:11:01.719Z,13.22
2018-11-13T08:12:01.967Z,13.19
2018-11-13T08:13:02.502Z,13.16
2018-11-13T08:14:01.703Z,13.18
2018-11-13T08:15:01.981Z,13.23
2018-11-13T08:16:01.712Z,13.15
2018-11-13T08:17:01.697Z,13.22
2018-11-13T08:18:01.710Z,13.16
2018-11-13T08:19:02.066Z,13.2
2018-11-13T08:20:01.694Z,13.25
2018-11-13T08:21:02.038Z,13.19
2018-11-13T08:22:01.826Z,13.18
2018-11-13T08:23:01.702Z,13.27
2018-11-13T08:24:01.692Z,13.23
2018-11-13T08:25:01.692Z,13.16
2018-11-13T08:26:01.692Z,13.15
2018-11-13T08:27:02.273Z,13.11
2018-11-13T08:28:01.880Z,13.09
2018-11-13T08:29:01.600Z,13.08
2018-11-13T08:30:01.663Z,13.04
2018-11-13T08:31:01.910Z,13.13
2018-11-13T08:32:01.942Z,13.12
2018-11-13T08:33:01.665Z,13.19
2018-11-13T08:34:01.646Z,13.2
2018-11-13T08:35:01.959Z,13.18
2018-11-13T08:36:01.657Z,13.25
2018-11-13T08:37:01.655Z,13.25
2018-11-13T08:38:01.635Z,13.25
2018-11-13T08:39:01.375Z,13.2
2018-11-13T08:40:01.372Z,13.28
2018-11-13T08:41:01.891Z,13.35
2018-11-13T08:42:01.891Z,13.27
2018-11-13T08:43:01.878Z,13.28
2018-11-13T08:44:02.091Z,13.3
2018-11-13T08:45:01.876Z,13.28
2018-11-13T08:46:01.882Z,13.33
2018-11-13T08:47:01.623Z,13.25
2018-11-13T08:48:01.609Z,13.27
2018-11-13T08:49:01.853Z,13.23
2018-11-13T08:50:01.356Z,13.19
2018-11-13T08:51:03.812Z,13.23
2018-11-13T08:52:01.351Z,13.28
2018-11-13T08:53:01.855Z,13.19
2018-11-13T08:54:01.869Z,13.18
2018-11-13T08:55:01.846Z,13.18
2018-11-13T08:56:01.583Z,13.2
2018-11-13T08:57:01.864Z,13.18
2018-11-13T08:58:01.826Z,13.15
2018-11-13T08:59:01.896Z,13.16
2018-11-13T09:00:01.855Z,13.2
2018-11-13T09:01:01.818Z,13.18
2018-11-13T09:02:01.826Z,13.23
2018-11-13T09:03:01.577Z,13.16
2018-11-13T09:04:01.566Z,13.25
2018-11-13T09:05:01.747Z,13.22
2018-11-13T09:06:01.801Z,13.23
2018-11-13T09:07:01.584Z,13.18
2018-11-13T09:08:01.536Z,13.23
2018-11-13T09:09:01.540Z,13.28
2018-11-13T09:10:01.538Z,13.27
2018-11-13T09:11:01.784Z,13.31
2018-11-13T09:12:02.731Z,13.33
2018-11-13T09:13:01.532Z,13.28
2018-11-13T09:14:01.785Z,13.35
2018-11-13T09:15:01.531Z,13.37
2018-11-13T09:16:01.787Z,13.41
2018-11-13T09:17:01.779Z,13.38
2018-11-13T09:18:01.653Z,13.39
2018-11-13T09:19:02.303Z,13.38
2018-11-13T09:20:01.505Z,13.5
2018-11-13T09:21:01.511Z,13.49
2018-11-13T09:22:01.506Z,13.42
2018-11-13T09:23:01.497Z,13.38
2018-11-13T09:24:01.489Z,13.35
2018-11-13T09:25:01.488Z,13.31
2018-11-13T09:26:01.230Z,13.28
2018-11-13T09:27:01.746Z,13.37
2018-11-13T09:28:01.518Z,13.35
2018-11-13T09:29:01.736Z,13.44
2018-11-13T09:30:02.156Z,13.31
2018-11-13T09:31:02.823Z,13.37
2018-11-13T09:32:01.214Z,13.41
2018-11-13T09:33:01.502Z,13.44
2018-11-13T09:34:01.727Z,13.5
2018-11-13T09:35:01.746Z,13.47
2018-11-13T09:36:01.226Z,13.41
2018-11-13T09:37:01.746Z,13.41
2018-11-13T09:38:01.710Z,13.41
2018-11-13T09:39:01.188Z,13.44
2018-11-13T09:40:01.717Z,13.41
2018-11-13T09:41:01.462Z,13.38
2018-11-13T09:42:01.445Z,13.37
2018-11-13T09:43:01.454Z,13.46
2018-11-13T09:44:01.716Z,13.33
2018-11-13T09:45:02.209Z,13.28
2018-11-13T09:46:01.662Z,13.3
2018-11-13T09:47:01.693Z,13.3
2018-11-13T09:48:01.681Z,13.38
2018-11-13T09:49:01.426Z,13.39
2018-11-13T09:50:01.685Z,13.33
2018-11-13T09:51:01.688Z,13.38
2018-11-13T09:52:01.720Z,13.37
2018-11-13T09:53:01.704Z,13.41
2018-11-13T09:54:01.429Z,13.38
2018-11-13T09:55:01.403Z,13.44
2018-11-13T09:56:01.409Z,13.39
2018-11-13T09:57:01.400Z,13.49
2018-11-13T09:58:01.145Z,13.46
2018-11-13T09:59:01.868Z,13.47
2018-11-13T10:00:01.916Z,13.37
2018-11-13T10:01:02.163Z,13.41
2018-11-13T10:02:03.598Z,13.35
2018-11-13T10:03:03.048Z,13.42
2018-11-13T10:04:04.570Z,13.41
2018-11-13T10:05:03.212Z,13.35
2018-11-13T10:06:01.162Z,13.39
2018-11-13T10:07:01.534Z,13.37
2018-11-13T10:08:01.360Z,13.39
2018-11-13T10:09:01.627Z,13.5
2018-11-13T10:10:01.382Z,13.47
2018-11-13T10:11:01.626Z,13.47
2018-11-13T10:12:01.360Z,13.5
2018-11-13T10:13:01.357Z,13.44
2018-11-13T10:14:01.602Z,13.53
2018-11-13T10:15:01.601Z,13.57
2018-11-13T10:16:01.354Z,13.57
2018-11-13T10:17:01.491Z,13.54
2018-11-13T10:18:01.751Z,13.5
2018-11-13T10:19:01.616Z,13.49
2018-11-13T10:20:01.358Z,13.54
2018-11-13T10:21:01.337Z,13.59
2018-11-13T10:22:03.172Z,13.53
2018-11-13T10:23:01.603Z,13.59
2018-11-13T10:24:01.061Z,13.62
2018-11-13T10:25:01.593Z,13.65
2018-11-13T10:26:01.070Z,13.62
2018-11-13T10:27:01.373Z,13.67
2018-11-13T10:28:01.582Z,13.54
2018-11-13T10:29:01.574Z,13.57
2018-11-13T10:30:01.847Z,13.54
2018-11-13T10:31:01.305Z,13.57
2018-11-13T10:32:01.572Z,13.54
2018-11-13T10:33:01.317Z,13.56
2018-11-13T10:34:01.557Z,13.6
2018-11-13T10:35:01.553Z,13.65
2018-11-13T10:36:01.304Z,13.68
2018-11-13T10:37:01.626Z,13.68
2018-11-13T10:38:01.547Z,13.74
2018-11-13T10:39:01.281Z,13.67
2018-11-13T10:40:01.749Z,13.65
2018-11-13T10:41:01.847Z,13.6
2018-11-13T10:42:01.286Z,13.54
2018-11-13T10:43:01.307Z,13.52
2018-11-13T10:44:01.529Z,13.53
2018-11-13T10:45:01.529Z,13.52
2018-11-13T10:46:01.284Z,13.54
2018-11-13T10:47:01.518Z,13.57
2018-11-13T10:48:01.536Z,13.47
2018-11-13T10:49:01.789Z,13.5
2018-11-13T10:50:01.315Z,13.46
2018-11-13T10:51:01.273Z,13.46
2018-11-13T10:52:01.553Z,13.54
2018-11-13T10:53:01.510Z,13.59
2018-11-13T10:54:01.259Z,13.74
2018-11-13T10:55:01.274Z,13.71
2018-11-13T10:56:00.992Z,13.7
2018-11-13T10:57:01.504Z,13.71
2018-11-13T10:58:01.248Z,13.71
2018-11-13T10:59:01.494Z,13.75
2018-11-13T11:00:01.498Z,13.83
2018-11-13T11:01:01.233Z,13.81
2018-11-13T11:02:01.480Z,13.78
2018-11-13T11:03:01.885Z,13.85
2018-11-13T11:04:01.220Z,13.86
2018-11-13T11:05:01.476Z,13.75
2018-11-13T11:06:01.221Z,13.78
2018-11-13T11:07:01.476Z,13.79
2018-11-13T11:08:01.204Z,13.79
2018-11-13T11:09:01.484Z,13.87
2018-11-13T11:10:01.456Z,13.89
2018-11-13T11:11:01.459Z,13.87
2018-11-13T11:12:00.960Z,13.92
2018-11-13T11:13:01.462Z,13.96
2018-11-13T11:14:02.563Z,14.05
2018-11-13T11:15:01.485Z,13.95
2018-11-13T11:16:01.501Z,13.93
2018-11-13T11:17:01.214Z,14.04
2018-11-13T11:18:01.027Z,14.05
2018-11-13T11:19:01.136Z,13.99
2018-11-13T11:20:01.456Z,14.05
2018-11-13T11:21:01.427Z,14.07
2018-11-13T11:22:01.490Z,14
2018-11-13T11:23:01.796Z,13.99
2018-11-13T11:24:01.668Z,13.97
2018-11-13T11:25:00.946Z,14.04
2018-11-13T11:26:01.187Z,13.95
2018-11-13T11:27:01.176Z,13.9
2018-11-13T11:28:01.725Z,13.92
2018-11-13T11:29:01.425Z,13.97
2018-11-13T11:30:01.410Z,13.99
2018-11-13T11:31:01.308Z,14.03
2018-11-13T11:32:01.166Z,14
2018-11-13T11:33:01.427Z,14
2018-11-13T11:34:01.406Z,14.03
2018-11-13T11:35:01.152Z,14.03
2018-11-13T11:36:01.427Z,14.1
2018-11-13T11:37:01.156Z,14.1
2018-11-13T11:38:00.898Z,14.1
2018-11-13T11:39:02.209Z,14.12
2018-11-13T11:40:01.171Z,14.14
2018-11-13T11:41:01.159Z,14.14
2018-11-13T11:42:01.158Z,14.2
2018-11-13T11:43:01.142Z,14.11
2018-11-13T11:44:01.126Z,14.1
2018-11-13T11:45:01.403Z,14.12
2018-11-13T11:46:01.389Z,14.14
2018-11-13T11:47:01.379Z,14.14
2018-11-13T11:48:01.399Z,14.1
2018-11-13T11:49:01.127Z,14.11
2018-11-13T11:50:01.141Z,14.11
2018-11-13T11:51:01.393Z,14.17
2018-11-13T11:52:01.633Z,14.08
2018-11-13T11:53:01.124Z,14.05
2018-11-13T11:54:01.839Z,14.04
2018-11-13T11:55:01.127Z,14.05
2018-11-13T11:56:01.109Z,14.1
2018-11-13T11:57:01.148Z,14.14
2018-11-13T11:58:01.116Z,14.08
2018-11-13T11:59:01.103Z,14.04
2018-11-13T12:00:01.345Z,14.11
2018-11-13T12:01:01.098Z,14.1
2018-11-13T12:02:01.415Z,13.97
2018-11-13T12:03:01.358Z,14.04
2018-11-13T12:04:01.085Z,13.95
2018-11-13T12:05:01.353Z,14.03
2018-11-13T12:06:01.106Z,14
2018-11-13T12:07:00.842Z,14.03
2018-11-13T12:08:01.086Z,14.05
2018-11-13T12:09:01.080Z,14.07
2018-11-13T12:10:01.095Z,14.1
2018-11-13T12:11:01.094Z,14.1
2018-11-13T12:12:01.349Z,14.1
2018-11-13T12:13:01.076Z,14.1
2018-11-13T12:14:01.081Z,14.12
2018-11-13T12:15:01.080Z,14.11
2018-11-13T12:16:00.805Z,14.11
2018-11-13T12:17:01.066Z,14.15
2018-11-13T12:18:01.073Z,14.15
2018-11-13T12:19:01.285Z,14.22
2018-11-13T12:20:01.319Z,14.22
2018-11-13T12:21:01.117Z,14.28
2018-11-13T12:22:01.848Z,14.2
2018-11-13T12:23:01.066Z,14.23
2018-11-13T12:24:01.312Z,14.23
2018-11-13T12:25:00.794Z,14.26
2018-11-13T12:26:01.584Z,14.23
2018-11-13T12:27:01.104Z,14.32
2018-11-13T12:28:01.042Z,14.36
2018-11-13T12:29:01.053Z,14.4
2018-11-13T12:30:01.393Z,14.43
2018-11-13T12:31:01.038Z,14.37
2018-11-13T12:32:01.044Z,14.47
2018-11-13T12:33:01.307Z,14.48
2018-11-13T12:34:01.063Z,14.48
2018-11-13T12:35:01.289Z,14.53
2018-11-13T12:36:01.041Z,14.51
2018-11-13T12:37:01.046Z,14.43
2018-11-13T12:38:01.268Z,14.51
2018-11-13T12:39:01.022Z,14.41
2018-11-13T12:40:00.778Z,14.54
2018-11-13T12:41:01.770Z,14.53
2018-11-13T12:42:01.027Z,14.63
2018-11-13T12:43:01.014Z,14.62
2018-11-13T12:44:01.011Z,14.73
2018-11-13T12:45:01.009Z,14.72
2018-11-13T12:46:00.755Z,14.85
2018-11-13T12:47:01.092Z,14.7
2018-11-13T12:48:00.747Z,14.7
2018-11-13T12:49:01.852Z,14.62
2018-11-13T12:50:01.298Z,14.6
2018-11-13T12:51:00.998Z,14.65
2018-11-13T12:52:02.297Z,14.66
2018-11-13T12:53:01.256Z,14.78
2018-11-13T12:54:03.207Z,14.78
2018-11-13T12:55:00.999Z,14.72
2018-11-13T12:56:03.253Z,14.85